sensor_id;sensor_type;location;lat;lon;timestamp;pressure;altitude;pressure_sealevel;temperature;humidity
42247;BME280;27913;42.722;23.268;2022-12-05T00:00:28;95929.97;;;4.80;99.50
42247;BME280;27913;42.722;23.268;2022-12-05T00:02:54;95924.31;;;4.75;99.88
42247;BME280;27913;42.722;23.268;2022-12-05T00:05:19;95928.00;;;4.73;99.86
42247;BME280;27913;42.722;23.268;2022-12-05T00:07:45;95777.75;;;3.88;100.00
42247;BME280;27913;42.722;23.268;2022-12-05T00:10:12;95930.38;;;4.76;100.00
42247;BME280;27913;42.722;23.268;2022-12-05T00:12:37;95929.56;;;4.85;99.81
42247;BME280;27913;42.722;23.268;2022-12-05T00:15:04;95935.81;;;4.94;99.44
42247;BME280;27913;42.722;23.268;2022-12-05T00:17:30;95923.72;;;4.93;99.01
42247;BME280;27913;42.722;23.268;2022-12-05T00:19:56;95935.88;;;4.82;98.93
42247;BME280;27913;42.722;23.268;2022-12-05T00:22:22;95869.84;;;4.51;99.51
42247;BME280;27913;42.722;23.268;2022-12-05T00:24:47;95719.00;;;3.64;99.37
42247;BME280;27913;42.722;23.268;2022-12-05T00:27:13;95880.59;;;4.57;98.88
42247;BME280;27913;42.722;23.268;2022-12-05T00:29:38;95833.84;;;4.34;99.12
42247;BME280;27913;42.722;23.268;2022-12-05T00:32:04;95749.31;;;3.74;98.48
42247;BME280;27913;42.722;23.268;2022-12-05T00:34:30;95937.22;;;4.98;98.87
42247;BME280;27913;42.722;23.268;2022-12-05T00:36:55;95946.31;;;5.04;98.79
42247;BME280;27913;42.722;23.268;2022-12-05T00:39:21;95864.13;;;4.57;98.08
42247;BME280;27913;42.722;23.268;2022-12-05T00:41:46;95931.88;;;5.00;98.62
42247;BME280;27913;42.722;23.268;2022-12-05T00:44:12;95847.16;;;4.41;99.06
42247;BME280;27913;42.722;23.268;2022-12-05T00:46:38;95939.69;;;5.00;99.34
42247;BME280;27913;42.722;23.268;2022-12-05T00:49:05;95947.06;;;4.94;98.81
42247;BME280;27913;42.722;23.268;2022-12-05T00:51:34;95900.38;;;4.60;98.97
42247;BME280;27913;42.722;23.268;2022-12-05T00:54:01;95934.72;;;4.97;99.41
42247;BME280;27913;42.722;23.268;2022-12-05T00:56:29;95808.00;;;4.21;98.96
42247;BME280;27913;42.722;23.268;2022-12-05T00:58:56;95861.72;;;4.44;99.27
42247;BME280;27913;42.722;23.268;2022-12-05T01:03:58;95836.88;;;4.40;99.05
42247;BME280;27913;42.722;23.268;2022-12-05T01:06:25;95757.25;;;3.94;99.28
42247;BME280;27913;42.722;23.268;2022-12-05T01:08:55;95660.59;;;3.35;99.13
42247;BME280;27913;42.722;23.268;2022-12-05T01:11:22;95653.25;;;3.40;99.29
42247;BME280;27913;42.722;23.268;2022-12-05T01:13:48;95653.50;;;3.37;99.12
42247;BME280;27913;42.722;23.268;2022-12-05T01:16:35;95880.13;;;4.74;99.62
42247;BME280;27913;42.722;23.268;2022-12-05T01:19:05;95700.19;;;3.38;100.00
42247;BME280;27913;42.722;23.268;2022-12-05T01:21:31;95733.34;;;3.46;100.00
42247;BME280;27913;42.722;23.268;2022-12-05T01:23:57;95783.72;;;3.78;100.00
42247;BME280;27913;42.722;23.268;2022-12-05T01:26:23;95660.03;;;2.98;100.00
42247;BME280;27913;42.722;23.268;2022-12-05T01:28:50;95650.34;;;3.00;100.00
42247;BME280;27913;42.722;23.268;2022-12-05T01:31:25;95899.72;;;4.46;100.00
42247;BME280;27913;42.722;23.268;2022-12-05T01:33:52;95659.41;;;3.06;100.00
42247;BME280;27913;42.722;23.268;2022-12-05T01:36:18;95886.81;;;4.45;100.00
42247;BME280;27913;42.722;23.268;2022-12-05T01:38:44;95708.91;;;3.37;100.00
42247;BME280;27913;42.722;23.268;2022-12-05T01:41:13;95892.16;;;4.65;100.00
42247;BME280;27913;42.722;23.268;2022-12-05T01:46:48;95776.47;;;3.82;100.00
42247;BME280;27913;42.722;23.268;2022-12-05T01:49:21;95830.16;;;4.16;100.00
42247;BME280;27913;42.722;23.268;2022-12-05T01:51:50;95900.59;;;4.57;100.00
42247;BME280;27913;42.722;23.268;2022-12-05T01:54:18;95823.97;;;4.17;100.00
42247;BME280;27913;42.722;23.268;2022-12-05T01:56:48;95758.38;;;3.80;100.00
42247;BME280;27913;42.722;23.268;2022-12-05T01:59:15;95789.59;;;3.92;100.00
42247;BME280;27913;42.722;23.268;2022-12-05T02:01:41;95675.03;;;3.28;100.00
42247;BME280;27913;42.722;23.268;2022-12-05T02:04:07;95892.69;;;4.58;100.00
42247;BME280;27913;42.722;23.268;2022-12-05T02:06:33;95890.53;;;4.64;100.00
42247;BME280;27913;42.722;23.268;2022-12-05T02:08:59;95904.78;;;4.69;100.00
42247;BME280;27913;42.722;23.268;2022-12-05T02:11:26;95898.13;;;4.77;100.00
42247;BME280;27913;42.722;23.268;2022-12-05T02:22:10;95792.38;;;4.00;100.00
42247;BME280;27913;42.722;23.268;2022-12-05T02:28:04;95891.16;;;4.56;100.00
42247;BME280;27913;42.722;23.268;2022-12-05T02:31:21;95720.22;;;3.48;100.00
42247;BME280;27913;42.722;23.268;2022-12-05T02:33:51;95637.34;;;3.00;100.00
42247;BME280;27913;42.722;23.268;2022-12-05T02:36:38;95883.41;;;4.44;100.00
42247;BME280;27913;42.722;23.268;2022-12-05T02:41:42;95817.53;;;4.11;100.00
42247;BME280;27913;42.722;23.268;2022-12-05T02:44:14;95874.50;;;4.47;100.00
42247;BME280;27913;42.722;23.268;2022-12-05T02:46:44;95883.50;;;4.43;100.00
42247;BME280;27913;42.722;23.268;2022-12-05T02:49:14;95881.34;;;4.48;100.00
42247;BME280;27913;42.722;23.268;2022-12-05T02:51:51;95618.47;;;2.87;100.00
42247;BME280;27913;42.722;23.268;2022-12-05T02:54:20;95880.84;;;4.54;100.00
42247;BME280;27913;42.722;23.268;2022-12-05T02:56:49;95872.91;;;4.56;100.00
42247;BME280;27913;42.722;23.268;2022-12-05T02:59:16;95873.03;;;4.54;100.00
42247;BME280;27913;42.722;23.268;2022-12-05T03:01:44;95885.81;;;4.57;100.00
42247;BME280;27913;42.722;23.268;2022-12-05T03:04:12;95738.28;;;3.82;100.00
42247;BME280;27913;42.722;23.268;2022-12-05T03:06:44;95865.03;;;4.67;100.00
42247;BME280;27913;42.722;23.268;2022-12-05T03:09:13;95888.16;;;4.61;100.00
42247;BME280;27913;42.722;23.268;2022-12-05T03:11:44;95629.63;;;3.10;100.00
42247;BME280;27913;42.722;23.268;2022-12-05T03:14:17;95843.88;;;4.39;100.00
42247;BME280;27913;42.722;23.268;2022-12-05T03:16:55;95617.81;;;3.06;100.00
42247;BME280;27913;42.722;23.268;2022-12-05T03:19:47;95753.88;;;3.82;100.00
42247;BME280;27913;42.722;23.268;2022-12-05T03:22:23;95868.72;;;4.65;100.00
42247;BME280;27913;42.722;23.268;2022-12-05T03:24:52;95877.81;;;4.70;100.00
42247;BME280;27913;42.722;23.268;2022-12-05T03:27:25;95880.00;;;4.75;100.00
42247;BME280;27913;42.722;23.268;2022-12-05T03:29:56;95821.25;;;4.40;100.00
42247;BME280;27913;42.722;23.268;2022-12-05T03:37:52;95888.44;;;4.89;100.00
42247;BME280;27913;42.722;23.268;2022-12-05T03:40:31;95785.25;;;4.23;100.00
42247;BME280;27913;42.722;23.268;2022-12-05T03:48:22;95876.34;;;4.78;100.00
42247;BME280;27913;42.722;23.268;2022-12-05T03:50:53;95785.75;;;4.17;100.00
42247;BME280;27913;42.722;23.268;2022-12-05T03:53:25;95882.78;;;4.83;100.00
42247;BME280;27913;42.722;23.268;2022-12-05T03:56:00;95598.44;;;3.10;100.00
42247;BME280;27913;42.722;23.268;2022-12-05T03:58:34;95885.59;;;4.92;100.00
42247;BME280;27913;42.722;23.268;2022-12-05T04:01:03;95877.81;;;5.02;100.00
42247;BME280;27913;42.722;23.268;2022-12-05T04:03:35;95812.72;;;4.59;99.68
42247;BME280;27913;42.722;23.268;2022-12-05T04:06:14;95882.56;;;4.87;100.00
42247;BME280;27913;42.722;23.268;2022-12-05T04:08:47;95873.34;;;4.82;100.00
42247;BME280;27913;42.722;23.268;2022-12-05T04:11:18;95871.94;;;4.78;100.00
42247;BME280;27913;42.722;23.268;2022-12-05T04:13:49;95810.22;;;4.47;100.00
42247;BME280;27913;42.722;23.268;2022-12-05T04:16:19;95843.19;;;4.58;100.00
42247;BME280;27913;42.722;23.268;2022-12-05T04:19:18;95865.34;;;4.74;100.00
42247;BME280;27913;42.722;23.268;2022-12-05T04:21:49;95862.47;;;4.77;100.00
42247;BME280;27913;42.722;23.268;2022-12-05T04:24:20;95860.63;;;4.68;100.00
42247;BME280;27913;42.722;23.268;2022-12-05T04:27:08;95767.22;;;4.10;100.00
42247;BME280;27913;42.722;23.268;2022-12-05T04:29:43;95804.63;;;4.31;100.00
42247;BME280;27913;42.722;23.268;2022-12-05T04:32:12;95812.38;;;4.21;100.00
42247;BME280;27913;42.722;23.268;2022-12-05T04:34:40;95662.75;;;3.30;100.00
42247;BME280;27913;42.722;23.268;2022-12-05T04:37:14;95766.84;;;3.94;100.00
42247;BME280;27913;42.722;23.268;2022-12-05T04:39:52;95867.16;;;4.62;100.00
42247;BME280;27913;42.722;23.268;2022-12-05T04:42:21;95779.84;;;4.15;100.00
42247;BME280;27913;42.722;23.268;2022-12-05T04:44:53;95838.28;;;4.44;100.00
42247;BME280;27913;42.722;23.268;2022-12-05T04:47:24;95668.06;;;3.28;100.00
42247;BME280;27913;42.722;23.268;2022-12-05T04:49:52;95827.13;;;4.32;100.00
42247;BME280;27913;42.722;23.268;2022-12-05T04:52:20;95882.88;;;4.72;100.00
42247;BME280;27913;42.722;23.268;2022-12-05T04:54:56;95627.66;;;3.24;100.00
42247;BME280;27913;42.722;23.268;2022-12-05T04:57:28;95872.06;;;4.77;100.00
42247;BME280;27913;42.722;23.268;2022-12-05T04:59:55;95879.25;;;4.85;100.00
42247;BME280;27913;42.722;23.268;2022-12-05T05:02:29;95799.22;;;4.44;100.00
42247;BME280;27913;42.722;23.268;2022-12-05T05:04:57;95890.69;;;4.93;100.00
42247;BME280;27913;42.722;23.268;2022-12-05T05:07:24;95722.28;;;3.87;100.00
42247;BME280;27913;42.722;23.268;2022-12-05T05:09:51;95704.84;;;3.78;100.00
42247;BME280;27913;42.722;23.268;2022-12-05T05:12:16;95797.97;;;4.48;100.00
42247;BME280;27913;42.722;23.268;2022-12-05T05:14:42;95900.19;;;5.04;99.36
42247;BME280;27913;42.722;23.268;2022-12-05T05:17:07;95615.38;;;3.26;99.35
42247;BME280;27913;42.722;23.268;2022-12-05T05:19:33;95681.59;;;3.65;99.64
42247;BME280;27913;42.722;23.268;2022-12-05T05:21:58;95901.16;;;5.03;99.03
42247;BME280;27913;42.722;23.268;2022-12-05T05:24:24;95735.03;;;3.90;99.37
42247;BME280;27913;42.722;23.268;2022-12-05T05:26:51;95666.81;;;3.44;99.63
42247;BME280;27913;42.722;23.268;2022-12-05T05:29:17;95897.63;;;4.83;99.48
42247;BME280;27913;42.722;23.268;2022-12-05T05:31:43;95837.63;;;4.52;99.88
42247;BME280;27913;42.722;23.268;2022-12-05T05:34:09;95801.66;;;4.14;100.00
42247;BME280;27913;42.722;23.268;2022-12-05T05:36:36;95660.22;;;3.40;100.00
42247;BME280;27913;42.722;23.268;2022-12-05T05:39:03;95831.75;;;4.50;99.97
42247;BME280;27913;42.722;23.268;2022-12-05T05:41:34;95821.97;;;4.42;100.00
42247;BME280;27913;42.722;23.268;2022-12-05T05:44:00;95907.06;;;5.05;99.91
42247;BME280;27913;42.722;23.268;2022-12-05T05:46:29;95747.91;;;4.13;99.63
42247;BME280;27913;42.722;23.268;2022-12-05T05:48:55;95664.22;;;3.65;99.43
42247;BME280;27913;42.722;23.268;2022-12-05T05:51:22;95915.34;;;5.20;99.25
42247;BME280;27913;42.722;23.268;2022-12-05T05:53:50;95926.06;;;5.17;98.46
42247;BME280;27913;42.722;23.268;2022-12-05T05:56:17;95923.19;;;5.20;98.48
42247;BME280;27913;42.722;23.268;2022-12-05T05:58:44;95905.53;;;5.03;98.61
42247;BME280;27913;42.722;23.268;2022-12-05T06:01:12;95889.00;;;4.92;98.04
42247;BME280;27913;42.722;23.268;2022-12-05T06:03:39;95900.31;;;5.03;98.28
42247;BME280;27913;42.722;23.268;2022-12-05T06:06:07;95933.25;;;5.25;97.81
42247;BME280;27913;42.722;23.268;2022-12-05T06:08:34;95934.88;;;5.26;97.90
42247;BME280;27913;42.722;23.268;2022-12-05T06:11:14;95930.88;;;5.22;97.69
42247;BME280;27913;42.722;23.268;2022-12-05T06:13:40;95777.63;;;4.32;97.61
42247;BME280;27913;42.722;23.268;2022-12-05T06:16:07;95937.22;;;5.29;97.76
42247;BME280;27913;42.722;23.268;2022-12-05T06:18:34;95814.97;;;4.64;97.60
42247;BME280;27913;42.722;23.268;2022-12-05T06:20:59;95843.13;;;4.80;97.24
42247;BME280;27913;42.722;23.268;2022-12-05T06:23:25;95880.25;;;4.93;97.39
42247;BME280;27913;42.722;23.268;2022-12-05T06:25:53;95934.47;;;5.31;97.34
42247;BME280;27913;42.722;23.268;2022-12-05T06:28:19;95682.81;;;3.82;97.15
42247;BME280;27913;42.722;23.268;2022-12-05T06:30:45;95927.34;;;5.33;97.33
42247;BME280;27913;42.722;23.268;2022-12-05T06:33:11;95827.63;;;4.78;96.98
42247;BME280;27913;42.722;23.268;2022-12-05T06:35:37;95912.53;;;5.34;97.25
42247;BME280;27913;42.722;23.268;2022-12-05T06:38:03;95937.56;;;5.46;96.42
42247;BME280;27913;42.722;23.268;2022-12-05T06:40:32;95923.81;;;5.34;96.79
42247;BME280;27913;42.722;23.268;2022-12-05T06:42:58;95854.84;;;4.95;96.60
42247;BME280;27913;42.722;23.268;2022-12-05T06:45:23;95881.41;;;5.11;96.77
42247;BME280;27913;42.722;23.268;2022-12-05T06:47:52;95937.44;;;5.48;96.93
42247;BME280;27913;42.722;23.268;2022-12-05T06:50:18;95778.81;;;4.49;96.51
42247;BME280;27913;42.722;23.268;2022-12-05T06:52:43;95882.50;;;5.08;96.40
42247;BME280;27913;42.722;23.268;2022-12-05T06:55:09;95907.59;;;5.30;97.06
42247;BME280;27913;42.722;23.268;2022-12-05T06:57:35;95747.84;;;4.25;96.72
42247;BME280;27913;42.722;23.268;2022-12-05T07:00:01;95705.00;;;4.07;96.05
42247;BME280;27913;42.722;23.268;2022-12-05T07:02:45;95823.38;;;4.77;96.13
42247;BME280;27913;42.722;23.268;2022-12-05T07:05:10;95943.28;;;5.30;96.75
42247;BME280;27913;42.722;23.268;2022-12-05T07:07:36;95948.50;;;5.40;97.44
42247;BME280;27913;42.722;23.268;2022-12-05T07:10:05;95797.34;;;4.56;96.77
42247;BME280;27913;42.722;23.268;2022-12-05T07:12:32;95896.38;;;5.18;97.18
42247;BME280;27913;42.722;23.268;2022-12-05T07:14:58;95813.56;;;4.59;96.55
42247;BME280;27913;42.722;23.268;2022-12-05T07:17:24;95895.81;;;5.15;97.07
42247;BME280;27913;42.722;23.268;2022-12-05T07:19:51;95954.88;;;5.57;96.74
42247;BME280;27913;42.722;23.268;2022-12-05T07:22:17;95865.47;;;5.04;95.72
42247;BME280;27913;42.722;23.268;2022-12-05T07:24:45;95914.16;;;5.35;95.61
42247;BME280;27913;42.722;23.268;2022-12-05T07:27:12;95956.72;;;5.66;96.13
42247;BME280;27913;42.722;23.268;2022-12-05T07:29:38;95912.69;;;5.42;95.70
42247;BME280;27913;42.722;23.268;2022-12-05T07:32:04;95955.84;;;5.56;95.58
42247;BME280;27913;42.722;23.268;2022-12-05T07:34:29;95713.69;;;4.18;95.19
42247;BME280;27913;42.722;23.268;2022-12-05T07:36:55;95919.69;;;5.41;95.30
42247;BME280;27913;42.722;23.268;2022-12-05T07:39:20;95959.81;;;5.50;95.64
42247;BME280;27913;42.722;23.268;2022-12-05T07:41:46;95764.47;;;4.33;95.59
42247;BME280;27913;42.722;23.268;2022-12-05T07:44:12;95970.53;;;5.57;95.68
42247;BME280;27913;42.722;23.268;2022-12-05T07:46:38;95890.25;;;5.19;95.49
42247;BME280;27913;42.722;23.268;2022-12-05T07:49:03;95938.75;;;5.32;95.50
42247;BME280;27913;42.722;23.268;2022-12-05T07:51:29;95964.16;;;5.40;96.49
42247;BME280;27913;42.722;23.268;2022-12-05T07:53:55;95965.47;;;5.24;97.19
42247;BME280;27913;42.722;23.268;2022-12-05T07:56:22;95938.56;;;5.24;97.55
42247;BME280;27913;42.722;23.268;2022-12-05T07:58:48;95905.97;;;5.08;97.29
42247;BME280;27913;42.722;23.268;2022-12-05T08:01:20;95752.22;;;4.24;96.74
42247;BME280;27913;42.722;23.268;2022-12-05T08:03:46;95948.56;;;5.50;96.70
42247;BME280;27913;42.722;23.268;2022-12-05T08:06:14;95690.78;;;3.90;96.40
42247;BME280;27913;42.722;23.268;2022-12-05T08:08:40;95770.31;;;4.26;96.58
42247;BME280;27913;42.722;23.268;2022-12-05T08:11:09;95806.06;;;4.45;97.58
42247;BME280;27913;42.722;23.268;2022-12-05T08:13:35;95967.78;;;5.49;97.37
42247;BME280;27913;42.722;23.268;2022-12-05T08:16:06;95785.31;;;4.33;96.68
42247;BME280;27913;42.722;23.268;2022-12-05T08:18:32;95875.09;;;4.82;97.48
42247;BME280;27913;42.722;23.268;2022-12-05T08:21:03;95979.94;;;5.38;97.12
42247;BME280;27913;42.722;23.268;2022-12-05T08:23:30;95865.91;;;4.78;97.23
42247;BME280;27913;42.722;23.268;2022-12-05T08:26:00;95965.72;;;5.52;97.42
42247;BME280;27913;42.722;23.268;2022-12-05T08:28:26;95733.13;;;4.14;96.50
42247;BME280;27913;42.722;23.268;2022-12-05T08:30:51;95972.25;;;5.68;96.55
42247;BME280;27913;42.722;23.268;2022-12-05T08:33:16;95914.88;;;5.37;95.57
42247;BME280;27913;42.722;23.268;2022-12-05T08:35:42;95726.91;;;4.36;95.42
42247;BME280;27913;42.722;23.268;2022-12-05T08:38:07;95962.94;;;5.85;95.60
42247;BME280;27913;42.722;23.268;2022-12-05T08:40:33;95965.81;;;5.82;94.93
42247;BME280;27913;42.722;23.268;2022-12-05T08:42:58;95959.06;;;5.70;95.40
42247;BME280;27913;42.722;23.268;2022-12-05T08:45:24;95934.91;;;5.67;94.74
42247;BME280;27913;42.722;23.268;2022-12-05T08:47:49;95908.06;;;5.55;94.63
42247;BME280;27913;42.722;23.268;2022-12-05T08:50:15;95962.38;;;5.72;95.55
42247;BME280;27913;42.722;23.268;2022-12-05T08:52:41;95950.00;;;5.64;95.34
42247;BME280;27913;42.722;23.268;2022-12-05T08:55:07;95865.78;;;5.20;95.49
42247;BME280;27913;42.722;23.268;2022-12-05T08:57:32;95719.09;;;4.36;95.37
42247;BME280;27913;42.722;23.268;2022-12-05T08:59:58;95908.75;;;5.58;94.77
42247;BME280;27913;42.722;23.268;2022-12-05T09:02:24;95853.75;;;5.29;94.21
42247;BME280;27913;42.722;23.268;2022-12-05T09:04:50;95961.63;;;6.01;93.91
42247;BME280;27913;42.722;23.268;2022-12-05T09:07:16;95964.91;;;6.03;93.55
42247;BME280;27913;42.722;23.268;2022-12-05T09:09:42;95973.19;;;6.08;93.63
42247;BME280;27913;42.722;23.268;2022-12-05T09:12:07;95742.25;;;4.61;93.12
42247;BME280;27913;42.722;23.268;2022-12-05T09:14:33;95798.44;;;4.85;93.47
42247;BME280;27913;42.722;23.268;2022-12-05T09:16:59;95804.69;;;5.03;93.36
42247;BME280;27913;42.722;23.268;2022-12-05T09:19:25;95963.03;;;6.05;93.75
42247;BME280;27913;42.722;23.268;2022-12-05T09:21:52;95965.22;;;6.10;93.01
42247;BME280;27913;42.722;23.268;2022-12-05T09:24:18;95754.00;;;4.96;92.36
42247;BME280;27913;42.722;23.268;2022-12-05T09:26:44;95890.13;;;5.82;91.85
42247;BME280;27913;42.722;23.268;2022-12-05T09:29:11;95944.63;;;6.16;91.41
42247;BME280;27913;42.722;23.268;2022-12-05T09:31:37;95865.66;;;5.63;91.48
42247;BME280;27913;42.722;23.268;2022-12-05T09:34:03;95946.06;;;5.99;92.28
42247;BME280;27913;42.722;23.268;2022-12-05T09:36:30;95932.63;;;6.04;92.23
42247;BME280;27913;42.722;23.268;2022-12-05T09:39:01;95848.06;;;5.65;92.14
42247;BME280;27913;42.722;23.268;2022-12-05T09:50:14;95871.47;;;6.07;90.19
42247;BME280;27913;42.722;23.268;2022-12-05T09:52:59;95920.00;;;6.29;89.92
42247;BME280;27913;42.722;23.268;2022-12-05T09:55:51;95906.84;;;6.31;90.52
42247;BME280;27913;42.722;23.268;2022-12-05T10:00:56;95865.00;;;6.01;90.08
42247;BME280;27913;42.722;23.268;2022-12-05T10:03:40;95858.94;;;5.90;90.08
42247;BME280;27913;42.722;23.268;2022-12-05T10:06:17;95872.13;;;5.89;90.44
42247;BME280;27913;42.722;23.268;2022-12-05T10:11:42;95799.84;;;5.60;90.67
42247;BME280;27913;42.722;23.268;2022-12-05T10:14:38;95816.06;;;5.73;90.29
42247;BME280;27913;42.722;23.268;2022-12-05T10:17:24;95721.53;;;5.10;89.97
42247;BME280;27913;42.722;23.268;2022-12-05T10:19:54;95909.44;;;6.11;91.23
42247;BME280;27913;42.722;23.268;2022-12-05T10:22:27;95702.16;;;4.93;90.96
42247;BME280;27913;42.722;23.268;2022-12-05T10:24:56;95909.84;;;6.26;90.72
42247;BME280;27913;42.722;23.268;2022-12-05T10:27:30;95894.03;;;6.27;90.96
42247;BME280;27913;42.722;23.268;2022-12-05T10:30:18;95907.38;;;6.34;90.15
42247;BME280;27913;42.722;23.268;2022-12-05T10:32:59;95837.25;;;5.90;90.66
42247;BME280;27913;42.722;23.268;2022-12-05T10:35:27;95867.06;;;6.17;90.73
42247;BME280;27913;42.722;23.268;2022-12-05T10:37:58;95890.03;;;6.43;90.18
42247;BME280;27913;42.722;23.268;2022-12-05T10:40:33;95873.53;;;6.23;90.19
42247;BME280;27913;42.722;23.268;2022-12-05T10:43:00;95627.22;;;4.85;89.77
42247;BME280;27913;42.722;23.268;2022-12-05T10:45:25;95864.59;;;6.35;90.03
42247;BME280;27913;42.722;23.268;2022-12-05T10:47:56;95812.94;;;6.09;89.38
42247;BME280;27913;42.722;23.268;2022-12-05T10:50:29;95880.81;;;6.59;89.48
42247;BME280;27913;42.722;23.268;2022-12-05T10:52:57;95884.38;;;6.58;88.86
42247;BME280;27913;42.722;23.268;2022-12-05T10:55:28;95880.53;;;6.62;89.02
42247;BME280;27913;42.722;23.268;2022-12-05T10:58:12;95652.63;;;5.23;88.83
42247;BME280;27913;42.722;23.268;2022-12-05T11:00:39;95884.38;;;6.68;88.97
42247;BME280;27913;42.722;23.268;2022-12-05T11:03:27;95776.66;;;6.06;88.80
42247;BME280;27913;42.722;23.268;2022-12-05T11:05:55;95878.06;;;6.60;88.85
42247;BME280;27913;42.722;23.268;2022-12-05T11:08:27;95872.69;;;6.62;89.26
42247;BME280;27913;42.722;23.268;2022-12-05T11:11:07;95869.38;;;6.60;89.35
42247;BME280;27913;42.722;23.268;2022-12-05T11:16:37;95820.88;;;6.37;89.12
42247;BME280;27913;42.722;23.268;2022-12-05T11:19:38;95867.16;;;6.65;89.21
42247;BME280;27913;42.722;23.268;2022-12-05T11:22:04;95746.13;;;5.97;89.05
42247;BME280;27913;42.722;23.268;2022-12-05T11:27:00;95855.50;;;6.49;90.19
42247;BME280;27913;42.722;23.268;2022-12-05T11:29:57;95822.50;;;6.38;89.74
42247;BME280;27913;42.722;23.268;2022-12-05T11:32:25;95853.84;;;6.58;89.68
42247;BME280;27913;42.722;23.268;2022-12-05T11:49:02;95816.41;;;6.96;92.63
42247;BME280;27913;42.722;23.268;2022-12-05T11:51:38;95777.16;;;6.78;90.78
42247;BME280;27913;42.722;23.268;2022-12-05T11:59:44;95801.63;;;6.38;90.16
42247;BME280;27913;42.722;23.268;2022-12-05T12:11:08;95792.66;;;6.51;89.49
42247;BME280;27913;42.722;23.268;2022-12-05T12:16:38;95791.56;;;6.54;89.67
42247;BME280;27913;42.722;23.268;2022-12-05T12:30:19;95602.25;;;5.22;90.70
42247;BME280;27913;42.722;23.268;2022-12-05T12:35:30;95787.59;;;6.39;90.92
42247;BME280;27913;42.722;23.268;2022-12-05T12:40:45;95782.78;;;6.45;91.27
42247;BME280;27913;42.722;23.268;2022-12-05T12:48:37;95779.72;;;6.49;91.47
42247;BME280;27913;42.722;23.268;2022-12-05T12:51:11;95779.97;;;6.56;91.31
42247;BME280;27913;42.722;23.268;2022-12-05T12:56:32;95638.56;;;5.73;90.77
42247;BME280;27913;42.722;23.268;2022-12-05T12:59:32;95692.94;;;5.98;90.34
42247;BME280;27913;42.722;23.268;2022-12-05T13:02:20;95526.53;;;5.04;90.70
42247;BME280;27913;42.722;23.268;2022-12-05T13:07:46;95687.28;;;6.12;90.58
42247;BME280;27913;42.722;23.268;2022-12-05T13:10:30;95505.97;;;5.01;90.51
42247;BME280;27913;42.722;23.268;2022-12-05T13:12:58;95721.78;;;6.16;91.11
42247;BME280;27913;42.722;23.268;2022-12-05T13:15:58;95729.84;;;6.33;90.96
42247;BME280;27913;42.722;23.268;2022-12-05T13:18:26;95772.56;;;6.51;90.50
42247;BME280;27913;42.722;23.268;2022-12-05T13:21:00;95666.06;;;5.77;90.65
42247;BME280;27913;42.722;23.268;2022-12-05T13:23:28;95778.28;;;6.27;91.57
42247;BME280;27913;42.722;23.268;2022-12-05T13:25:57;95680.06;;;5.66;92.28
42247;BME280;27913;42.722;23.268;2022-12-05T13:28:29;95785.09;;;6.38;91.85
42247;BME280;27913;42.722;23.268;2022-12-05T13:30:57;95558.91;;;5.01;91.81
42247;BME280;27913;42.722;23.268;2022-12-05T13:33:29;95529.16;;;4.84;91.96
42247;BME280;27913;42.722;23.268;2022-12-05T13:35:56;95685.00;;;5.79;91.78
42247;BME280;27913;42.722;23.268;2022-12-05T13:38:46;95663.19;;;5.61;91.80
42247;BME280;27913;42.722;23.268;2022-12-05T13:42:02;95768.63;;;6.37;92.19
42247;BME280;27913;42.722;23.268;2022-12-05T13:44:47;95776.31;;;6.39;91.72
42247;BME280;27913;42.722;23.268;2022-12-05T13:47:46;95772.75;;;6.30;92.12
42247;BME280;27913;42.722;23.268;2022-12-05T13:50:18;95573.59;;;4.92;93.64
42247;BME280;27913;42.722;23.268;2022-12-05T13:52:52;95776.09;;;6.12;93.42
42247;BME280;27913;42.722;23.268;2022-12-05T13:55:21;95763.97;;;6.01;94.57
42247;BME280;27913;42.722;23.268;2022-12-05T13:57:55;95782.69;;;6.07;94.52
42247;BME280;27913;42.722;23.268;2022-12-05T14:02:48;95771.69;;;6.13;94.70
42247;BME280;27913;42.722;23.268;2022-12-05T14:07:46;95694.91;;;5.66;93.45
42247;BME280;27913;42.722;23.268;2022-12-05T14:10:21;95782.56;;;6.18;93.72
42247;BME280;27913;42.722;23.268;2022-12-05T14:13:02;95722.22;;;5.82;93.63
42247;BME280;27913;42.722;23.268;2022-12-05T14:15:34;95726.34;;;5.84;93.51
42247;BME280;27913;42.722;23.268;2022-12-05T14:26:41;95742.41;;;5.89;93.92
42247;BME280;27913;42.722;23.268;2022-12-05T14:32:16;95519.13;;;4.40;93.78
42247;BME280;27913;42.722;23.268;2022-12-05T14:34:57;95753.84;;;5.88;94.02
42247;BME280;27913;42.722;23.268;2022-12-05T14:37:32;95693.53;;;5.52;93.76
42247;BME280;27913;42.722;23.268;2022-12-05T14:40:02;95785.97;;;6.19;93.67
42247;BME280;27913;42.722;23.268;2022-12-05T14:42:41;95783.09;;;6.22;93.49
42247;BME280;27913;42.722;23.268;2022-12-05T14:45:39;95784.59;;;6.24;93.20
42247;BME280;27913;42.722;23.268;2022-12-05T14:55:52;95551.38;;;4.78;92.97
42247;BME280;27913;42.722;23.268;2022-12-05T15:00:53;95598.16;;;5.10;92.76
42247;BME280;27913;42.722;23.268;2022-12-05T15:03:33;95614.06;;;5.06;92.92
42247;BME280;27913;42.722;23.268;2022-12-05T15:06:02;95575.41;;;4.92;93.20
42247;BME280;27913;42.722;23.268;2022-12-05T15:08:33;95560.31;;;4.76;93.48
42247;BME280;27913;42.722;23.268;2022-12-05T15:11:05;95738.16;;;5.88;93.35
42247;BME280;27913;42.722;23.268;2022-12-05T15:13:32;95737.47;;;5.86;93.05
42247;BME280;27913;42.722;23.268;2022-12-05T15:16:18;95661.03;;;5.16;94.67
42247;BME280;27913;42.722;23.268;2022-12-05T15:18:48;95782.13;;;5.93;94.90
42247;BME280;27913;42.722;23.268;2022-12-05T15:21:26;95772.38;;;5.85;95.47
42247;BME280;27913;42.722;23.268;2022-12-05T15:29:14;95684.22;;;5.49;95.05
42247;BME280;27913;42.722;23.268;2022-12-05T15:31:53;95711.25;;;5.68;94.69
42247;BME280;27913;42.722;23.268;2022-12-05T15:37:11;95774.84;;;6.07;94.78
42247;BME280;27913;42.722;23.268;2022-12-05T15:40:01;95771.16;;;6.09;94.76